createdAt,value
2023-04-23T00:02:54.070Z,12.50
2023-04-23T00:08:00.812Z,13.18
2023-04-23T00:13:04.659Z,10.98
2023-04-23T00:18:08.203Z,15.18
2023-04-23T00:23:11.142Z,13.65
2023-04-23T00:28:13.925Z,16.80
2023-04-23T00:33:17.602Z,12.93
2023-04-23T00:38:21.540Z,14.25
2023-04-23T00:43:24.635Z,12.55
2023-04-23T00:48:29.032Z,13.63
2023-04-23T00:53:51.028Z,13.65
2023-04-23T00:58:54.646Z,13.23
2023-04-23T01:03:59.102Z,15.02
2023-04-23T01:09:02.620Z,15.23
2023-04-23T01:14:06.926Z,15.50
2023-04-23T01:19:11.070Z,16.38
2023-04-23T01:24:13.990Z,16.35
2023-04-23T01:29:17.469Z,15.77
2023-04-23T01:34:21.251Z,17.73
2023-04-23T01:39:24.256Z,14.70
2023-04-23T01:44:27.205Z,20.40
2023-04-23T01:49:30.217Z,22.00
2023-04-23T01:54:33.285Z,24.83
2023-04-23T01:59:37.844Z,23.45
2023-04-23T02:04:44.656Z,28.75
2023-04-23T02:09:47.877Z,24.10
2023-04-23T02:14:51.099Z,31.30
2023-04-23T02:20:11.865Z,28.98
2023-04-23T02:25:17.169Z,33.22
2023-04-23T02:30:20.429Z,27.60
2023-04-23T02:35:24.304Z,27.65
2023-04-23T02:40:27.265Z,28.33
2023-04-23T02:45:30.134Z,30.00
2023-04-23T02:50:33.095Z,31.60
2023-04-23T02:55:35.949Z,28.65
2023-04-23T03:00:39.059Z,29.20
2023-04-23T03:05:42.257Z,27.52
2023-04-23T03:10:45.146Z,32.10
2023-04-23T03:15:48.632Z,31.65
2023-04-23T03:20:51.868Z,31.15
2023-04-23T03:25:54.816Z,37.63
2023-04-23T03:30:57.917Z,35.58
2023-04-23T03:36:00.853Z,33.28
2023-04-23T03:41:07.389Z,34.72
2023-04-23T03:46:10.634Z,28.92
2023-04-23T03:51:16.326Z,29.52
2023-04-23T03:56:21.714Z,36.05
2023-04-23T04:01:50.689Z,33.58
2023-04-23T04:06:54.730Z,31.50
2023-04-23T04:12:03.107Z,34.42
2023-04-23T04:17:06.256Z,30.08
2023-04-23T04:22:12.001Z,32.42
2023-04-23T04:27:16.018Z,30.55
2023-04-23T04:32:19.478Z,26.60
2023-04-23T04:37:23.802Z,28.48
2023-04-23T04:42:46.716Z,29.83
2023-04-23T04:47:49.651Z,31.85
2023-04-23T04:52:52.724Z,29.55
2023-04-23T04:57:56.385Z,32.17
2023-04-23T05:02:59.642Z,27.92
2023-04-23T05:08:02.620Z,28.42
2023-04-23T05:13:23.860Z,25.50
2023-04-23T05:18:27.236Z,28.85
2023-04-23T05:23:30.221Z,26.88
2023-04-23T05:28:33.233Z,24.23
2023-04-23T05:33:46.195Z,22.15
2023-04-23T05:38:52.106Z,21.77
2023-04-23T05:43:55.069Z,20.35
2023-04-23T05:48:57.997Z,27.38
2023-04-23T05:54:01.156Z,16.80
2023-04-23T06:04:07.642Z,18.38
2023-04-23T06:09:10.894Z,23.25
2023-04-23T06:14:13.773Z,20.00
2023-04-23T06:19:17.023Z,20.35
2023-04-23T06:24:19.970Z,22.92
2023-04-23T06:29:22.908Z,22.10
2023-04-23T06:34:30.022Z,20.98
2023-04-23T06:39:32.905Z,19.88
2023-04-23T06:44:35.910Z,21.70
2023-04-23T06:49:41.188Z,20.08
2023-04-23T06:54:44.270Z,17.90
2023-04-23T06:59:47.487Z,12.38
2023-04-23T07:04:51.284Z,14.30
2023-04-23T07:14:57.245Z,13.25
2023-04-23T07:20:00.543Z,9.00
2023-04-23T07:25:04.838Z,9.02
2023-04-23T07:30:09.505Z,9.75
2023-04-23T07:35:12.645Z,8.55
2023-04-23T07:40:15.751Z,8.75
2023-04-23T07:45:19.733Z,9.63
2023-04-23T07:50:41.128Z,6.25
2023-04-23T07:55:44.149Z,6.47
2023-04-23T08:00:47.024Z,6.63
2023-04-23T08:10:52.654Z,4.55
2023-04-23T08:20:58.623Z,5.70
2023-04-23T08:26:20.045Z,6.72
2023-04-23T08:31:26.974Z,5.72
2023-04-23T08:36:30.303Z,8.32
2023-04-23T08:41:43.057Z,6.55
2023-04-23T08:46:46.422Z,6.30
2023-04-23T08:51:52.597Z,7.95
2023-04-23T08:57:00.367Z,6.13
2023-04-23T09:02:08.478Z,8.55
2023-04-23T09:07:12.805Z,7.90
2023-04-23T09:12:15.963Z,7.65
2023-04-23T09:17:19.930Z,6.97
2023-04-23T09:22:52.731Z,8.45
2023-04-23T09:27:58.827Z,8.38
2023-04-23T09:33:01.695Z,10.48
2023-04-23T09:38:08.130Z,6.88
2023-04-23T09:43:11.638Z,5.45
2023-04-23T09:48:43.547Z,7.80
2023-04-23T09:53:46.554Z,5.40
2023-04-23T09:58:49.462Z,7.15
2023-04-23T10:03:53.829Z,9.15
2023-04-23T10:08:57.560Z,8.82
2023-04-23T10:14:01.103Z,6.55
2023-04-23T10:19:06.730Z,7.60
2023-04-23T10:24:13.729Z,8.05
2023-04-23T10:29:19.169Z,8.00
2023-04-23T10:34:22.385Z,7.10
2023-04-23T10:39:34.544Z,6.45
2023-04-23T10:45:04.764Z,7.43
2023-04-23T10:50:28.328Z,6.95
2023-04-23T10:55:33.116Z,5.97
2023-04-23T11:00:42.078Z,7.88
2023-04-23T11:05:45.529Z,7.38
2023-04-23T11:10:59.509Z,6.47
2023-04-23T11:16:22.309Z,6.35
2023-04-23T11:21:59.146Z,6.30
2023-04-23T11:27:08.387Z,6.35
2023-04-23T11:32:13.613Z,9.35
2023-04-23T11:37:40.637Z,7.63
2023-04-23T11:42:51.864Z,6.47
2023-04-23T11:47:57.014Z,8.52
2023-04-23T11:53:09.093Z,7.22
2023-04-23T11:58:12.062Z,7.03
2023-04-23T12:03:16.634Z,5.57
2023-04-23T12:08:21.287Z,7.15
2023-04-23T12:13:25.333Z,6.53
2023-04-23T12:18:42.453Z,6.40
2023-04-23T12:23:45.564Z,5.43
2023-04-23T12:28:59.338Z,7.15
2023-04-23T12:34:21.741Z,7.28
2023-04-23T12:39:32.489Z,6.82
2023-04-23T12:44:37.817Z,9.13
2023-04-23T12:49:42.822Z,5.82
2023-04-23T12:54:46.299Z,6.40
2023-04-23T12:59:49.710Z,6.55
2023-04-23T13:04:54.782Z,7.35
2023-04-23T13:10:16.836Z,7.00
2023-04-23T13:15:20.379Z,10.90
2023-04-23T13:20:41.751Z,7.85
2023-04-23T13:25:44.826Z,7.60
2023-04-23T13:30:47.969Z,7.00
2023-04-23T13:35:50.919Z,8.13
2023-04-23T13:40:54.231Z,7.28
2023-04-23T13:45:57.464Z,9.07
2023-04-23T13:51:03.534Z,7.57
2023-04-23T13:56:08.244Z,8.63
2023-04-23T14:01:13.368Z,7.72
2023-04-23T14:06:16.410Z,8.93
2023-04-23T14:11:19.468Z,6.57
2023-04-23T14:16:22.396Z,8.23
2023-04-23T14:21:25.731Z,7.35
2023-04-23T14:31:39.029Z,7.25
2023-04-23T14:36:42.035Z,7.25
2023-04-23T14:41:45.692Z,6.32
2023-04-23T14:46:51.325Z,6.22
2023-04-23T14:52:12.710Z,5.28
2023-04-23T14:57:15.962Z,6.45
2023-04-23T15:02:19.072Z,6.85
2023-04-23T15:07:22.112Z,8.93
2023-04-23T15:12:31.038Z,6.70
2023-04-23T15:22:36.523Z,8.13
2023-04-23T15:27:39.433Z,8.70
2023-04-23T15:32:42.848Z,9.00
2023-04-23T15:37:45.684Z,8.90
2023-04-23T15:42:50.209Z,42.38
2023-04-23T15:47:53.094Z,54.13
2023-04-23T15:52:59.310Z,33.17
2023-04-23T15:58:03.807Z,37.15
2023-04-23T16:03:07.520Z,43.38
2023-04-23T16:08:10.880Z,64.10
2023-04-23T16:13:14.373Z,68.15
2023-04-23T16:18:17.466Z,72.88
2023-04-23T16:23:20.767Z,46.55
2023-04-23T16:28:23.630Z,37.22
2023-04-23T16:33:45.324Z,45.42
2023-04-23T16:38:49.576Z,45.38
2023-04-23T16:43:52.634Z,41.28
2023-04-23T16:53:58.667Z,33.65
2023-04-23T17:04:04.495Z,32.63
2023-04-23T17:09:09.019Z,32.60
2023-04-23T17:14:13.268Z,28.58
2023-04-23T17:19:16.497Z,19.98
2023-04-23T17:24:19.584Z,20.23
2023-04-23T17:34:26.318Z,14.93
2023-04-23T17:39:47.729Z,13.23
2023-04-23T17:44:51.714Z,10.90
2023-04-23T17:49:55.849Z,12.57
2023-04-23T18:00:09.781Z,8.57
2023-04-23T18:05:18.069Z,9.50
2023-04-23T18:10:21.135Z,8.95
2023-04-23T18:15:25.929Z,7.80
2023-04-23T18:20:28.953Z,7.30
2023-04-23T18:25:32.616Z,14.02
2023-04-23T18:30:37.430Z,17.25
2023-04-23T18:35:43.480Z,21.55
2023-04-23T18:40:46.327Z,27.13
2023-04-23T18:45:49.344Z,16.38
2023-04-23T18:50:56.044Z,14.95
2023-04-23T18:55:58.898Z,15.00
2023-04-23T19:01:02.077Z,16.70
2023-04-23T19:06:23.604Z,13.82
2023-04-23T19:11:34.282Z,19.83
2023-04-23T19:16:37.432Z,10.63
2023-04-23T19:21:40.506Z,11.55
2023-04-23T19:26:43.460Z,8.40
2023-04-23T19:31:46.406Z,10.02
2023-04-23T19:36:49.892Z,6.45
2023-04-23T19:41:52.916Z,7.45
2023-04-23T19:46:56.767Z,7.65
2023-04-23T19:52:01.999Z,8.60
2023-04-23T19:57:04.843Z,7.60
2023-04-23T20:02:08.510Z,8.82
2023-04-23T20:07:11.816Z,12.40
2023-04-23T20:12:14.854Z,28.08
2023-04-23T20:17:17.956Z,21.40
2023-04-23T20:22:20.950Z,23.67
2023-04-23T20:27:24.061Z,16.15
2023-04-23T20:32:27.018Z,18.85
2023-04-23T20:37:30.248Z,14.05
2023-04-23T20:42:34.638Z,14.63
2023-04-23T20:47:37.965Z,16.88
2023-04-23T20:52:40.996Z,17.27
2023-04-23T20:57:44.046Z,17.25
2023-04-23T21:02:47.172Z,19.02
2023-04-23T21:07:50.897Z,17.55
2023-04-23T21:12:54.333Z,35.53
2023-04-23T21:17:57.374Z,31.00
2023-04-23T21:23:01.311Z,31.67
2023-04-23T21:28:04.652Z,32.20
2023-04-23T21:38:11.564Z,29.48
2023-04-23T21:43:14.833Z,18.60
2023-04-23T21:48:17.726Z,10.55
2023-04-23T21:53:22.763Z,11.35
2023-04-23T21:58:25.698Z,12.43
2023-04-23T22:03:33.810Z,13.63
2023-04-23T22:08:40.866Z,14.50
2023-04-23T22:13:43.791Z,13.30
2023-04-23T22:18:46.699Z,12.10
2023-04-23T22:23:49.821Z,14.75
2023-04-23T22:28:52.789Z,13.25
2023-04-23T22:33:55.696Z,12.25
2023-04-23T22:38:58.712Z,11.40
2023-04-23T22:44:01.814Z,10.77
2023-04-23T22:49:08.170Z,10.98
2023-04-23T22:54:11.090Z,11.80
2023-04-23T22:59:32.875Z,9.13
2023-04-23T23:04:54.200Z,11.13
2023-04-23T23:09:57.056Z,10.45
2023-04-23T23:14:59.861Z,10.02
2023-04-23T23:20:02.822Z,15.25
2023-04-23T23:25:07.638Z,9.23
2023-04-23T23:30:10.822Z,8.20
2023-04-23T23:35:13.779Z,9.38
2023-04-23T23:40:16.973Z,8.95
2023-04-23T23:45:20.143Z,8.73
2023-04-23T23:50:23.237Z,9.50
2023-04-23T23:55:26.125Z,7.75
